sensor_id;sensor_type;location;lat;lon;timestamp;temperature;humidity
4813;DHT22;2420;51.202;8.698;2024-01-30T00:00:44;-0.50;1.00
4813;DHT22;2420;51.202;8.698;2024-01-30T00:03:10;-0.40;1.00
4813;DHT22;2420;51.202;8.698;2024-01-30T00:05:35;-0.40;1.00
4813;DHT22;2420;51.202;8.698;2024-01-30T00:08:01;-0.60;1.00
4813;DHT22;2420;51.202;8.698;2024-01-30T00:10:26;-0.50;1.00
4813;DHT22;2420;51.202;8.698;2024-01-30T00:12:52;-0.40;1.00
4813;DHT22;2420;51.202;8.698;2024-01-30T00:15:18;-0.50;1.00
4813;DHT22;2420;51.202;8.698;2024-01-30T00:17:43;-0.40;1.00
4813;DHT22;2420;51.202;8.698;2024-01-30T00:20:09;-0.40;1.00
4813;DHT22;2420;51.202;8.698;2024-01-30T00:22:35;-0.60;1.00
4813;DHT22;2420;51.202;8.698;2024-01-30T00:25:00;-0.40;1.00
4813;DHT22;2420;51.202;8.698;2024-01-30T00:27:26;-0.40;1.00
4813;DHT22;2420;51.202;8.698;2024-01-30T00:29:53;-0.30;1.00
4813;DHT22;2420;51.202;8.698;2024-01-30T00:32:18;-0.60;1.00
4813;DHT22;2420;51.202;8.698;2024-01-30T00:34:44;-0.50;1.00
4813;DHT22;2420;51.202;8.698;2024-01-30T00:37:10;-0.60;1.00
4813;DHT22;2420;51.202;8.698;2024-01-30T00:39:35;-0.50;1.00
4813;DHT22;2420;51.202;8.698;2024-01-30T00:42:01;-0.50;1.00
4813;DHT22;2420;51.202;8.698;2024-01-30T00:44:27;-0.50;1.00
4813;DHT22;2420;51.202;8.698;2024-01-30T00:46:52;-0.50;1.00
4813;DHT22;2420;51.202;8.698;2024-01-30T00:49:18;-0.60;1.00
4813;DHT22;2420;51.202;8.698;2024-01-30T00:51:43;-0.60;1.00
4813;DHT22;2420;51.202;8.698;2024-01-30T00:54:09;-0.60;1.00
4813;DHT22;2420;51.202;8.698;2024-01-30T00:56:35;-0.70;1.00
4813;DHT22;2420;51.202;8.698;2024-01-30T00:59:00;-0.70;1.00
4813;DHT22;2420;51.202;8.698;2024-01-30T01:01:26;-0.50;1.00
4813;DHT22;2420;51.202;8.698;2024-01-30T01:03:51;-0.50;1.00
4813;DHT22;2420;51.202;8.698;2024-01-30T01:06:17;-0.50;1.00
4813;DHT22;2420;51.202;8.698;2024-01-30T01:08:42;-0.50;1.00
4813;DHT22;2420;51.202;8.698;2024-01-30T01:11:08;-0.70;1.00
4813;DHT22;2420;51.202;8.698;2024-01-30T01:13:33;-0.70;1.00
4813;DHT22;2420;51.202;8.698;2024-01-30T01:15:59;-0.50;1.00
4813;DHT22;2420;51.202;8.698;2024-01-30T01:18:25;-0.60;1.00
4813;DHT22;2420;51.202;8.698;2024-01-30T01:20:50;-0.50;1.00
4813;DHT22;2420;51.202;8.698;2024-01-30T01:23:16;-0.60;1.00
4813;DHT22;2420;51.202;8.698;2024-01-30T01:25:41;-0.60;1.00
4813;DHT22;2420;51.202;8.698;2024-01-30T01:28:07;-0.70;1.00
4813;DHT22;2420;51.202;8.698;2024-01-30T01:30:32;-0.50;1.00
4813;DHT22;2420;51.202;8.698;2024-01-30T01:32:58;-0.70;1.00
4813;DHT22;2420;51.202;8.698;2024-01-30T01:35:26;-0.60;1.00
4813;DHT22;2420;51.202;8.698;2024-01-30T01:37:53;-0.60;1.00
4813;DHT22;2420;51.202;8.698;2024-01-30T01:40:27;-0.80;1.00
4813;DHT22;2420;51.202;8.698;2024-01-30T01:42:53;-0.60;1.00
4813;DHT22;2420;51.202;8.698;2024-01-30T01:45:20;-0.60;1.00
4813;DHT22;2420;51.202;8.698;2024-01-30T01:47:47;-0.80;1.00
4813;DHT22;2420;51.202;8.698;2024-01-30T01:50:15;-0.60;1.00
4813;DHT22;2420;51.202;8.698;2024-01-30T01:52:44;-0.90;1.00
4813;DHT22;2420;51.202;8.698;2024-01-30T01:55:12;-0.80;1.00
4813;DHT22;2420;51.202;8.698;2024-01-30T01:57:39;-0.70;1.00
4813;DHT22;2420;51.202;8.698;2024-01-30T02:00:05;-0.90;1.00
4813;DHT22;2420;51.202;8.698;2024-01-30T02:02:35;-0.80;1.00
4813;DHT22;2420;51.202;8.698;2024-01-30T02:05:23;-0.70;1.00
4813;DHT22;2420;51.202;8.698;2024-01-30T02:07:50;-0.90;1.00
4813;DHT22;2420;51.202;8.698;2024-01-30T02:10:16;-0.50;1.00
4813;DHT22;2420;51.202;8.698;2024-01-30T02:12:42;-0.80;1.00
4813;DHT22;2420;51.202;8.698;2024-01-30T02:15:08;-0.70;1.00
4813;DHT22;2420;51.202;8.698;2024-01-30T02:17:33;-0.70;1.00
4813;DHT22;2420;51.202;8.698;2024-01-30T02:19:59;-0.80;1.00
4813;DHT22;2420;51.202;8.698;2024-01-30T02:22:25;-0.60;1.00
4813;DHT22;2420;51.202;8.698;2024-01-30T02:24:50;-0.60;1.00
4813;DHT22;2420;51.202;8.698;2024-01-30T02:27:16;-0.60;1.00
4813;DHT22;2420;51.202;8.698;2024-01-30T02:29:41;-0.70;1.00
4813;DHT22;2420;51.202;8.698;2024-01-30T02:32:07;-0.70;1.00
4813;DHT22;2420;51.202;8.698;2024-01-30T02:34:33;-0.80;1.00
4813;DHT22;2420;51.202;8.698;2024-01-30T02:36:59;-0.50;1.00
4813;DHT22;2420;51.202;8.698;2024-01-30T02:39:24;-0.70;1.00
4813;DHT22;2420;51.202;8.698;2024-01-30T02:41:50;-0.60;1.00
4813;DHT22;2420;51.202;8.698;2024-01-30T02:44:16;-0.60;1.00
4813;DHT22;2420;51.202;8.698;2024-01-30T02:46:41;-0.90;1.00
4813;DHT22;2420;51.202;8.698;2024-01-30T02:49:07;-0.80;1.00
4813;DHT22;2420;51.202;8.698;2024-01-30T02:51:32;-0.70;1.00
4813;DHT22;2420;51.202;8.698;2024-01-30T02:53:58;-0.70;1.00
4813;DHT22;2420;51.202;8.698;2024-01-30T02:56:23;-0.60;1.00
4813;DHT22;2420;51.202;8.698;2024-01-30T02:58:49;-0.60;1.00
4813;DHT22;2420;51.202;8.698;2024-01-30T03:01:15;-0.90;1.00
4813;DHT22;2420;51.202;8.698;2024-01-30T03:03:40;-0.60;1.00
4813;DHT22;2420;51.202;8.698;2024-01-30T03:06:06;-0.90;1.00
4813;DHT22;2420;51.202;8.698;2024-01-30T03:08:32;-0.80;1.00
4813;DHT22;2420;51.202;8.698;2024-01-30T03:10:58;-0.90;1.00
4813;DHT22;2420;51.202;8.698;2024-01-30T03:13:23;-0.60;1.00
4813;DHT22;2420;51.202;8.698;2024-01-30T03:15:50;-0.60;1.00
4813;DHT22;2420;51.202;8.698;2024-01-30T03:18:16;-0.60;1.00
4813;DHT22;2420;51.202;8.698;2024-01-30T03:20:41;-0.60;1.00
4813;DHT22;2420;51.202;8.698;2024-01-30T03:23:07;-0.70;1.00
4813;DHT22;2420;51.202;8.698;2024-01-30T03:25:32;-0.90;1.00
4813;DHT22;2420;51.202;8.698;2024-01-30T03:27:58;-0.70;1.00
4813;DHT22;2420;51.202;8.698;2024-01-30T03:30:23;-0.60;1.00
4813;DHT22;2420;51.202;8.698;2024-01-30T03:32:49;-0.80;1.00
4813;DHT22;2420;51.202;8.698;2024-01-30T03:35:15;-0.60;1.00
4813;DHT22;2420;51.202;8.698;2024-01-30T03:37:41;-0.90;1.00
4813;DHT22;2420;51.202;8.698;2024-01-30T03:40:07;-0.80;1.00
4813;DHT22;2420;51.202;8.698;2024-01-30T03:42:33;-0.80;1.00
4813;DHT22;2420;51.202;8.698;2024-01-30T03:44:58;-1.00;1.00
4813;DHT22;2420;51.202;8.698;2024-01-30T03:47:24;-0.70;1.00
4813;DHT22;2420;51.202;8.698;2024-01-30T03:49:49;-0.90;1.00
4813;DHT22;2420;51.202;8.698;2024-01-30T03:52:15;-1.00;1.00
4813;DHT22;2420;51.202;8.698;2024-01-30T03:54:40;-0.80;1.00
4813;DHT22;2420;51.202;8.698;2024-01-30T03:57:06;-0.90;1.00
4813;DHT22;2420;51.202;8.698;2024-01-30T03:59:31;-0.90;1.00
4813;DHT22;2420;51.202;8.698;2024-01-30T04:01:57;-0.90;1.00
4813;DHT22;2420;51.202;8.698;2024-01-30T04:04:23;-0.80;1.00
4813;DHT22;2420;51.202;8.698;2024-01-30T04:06:48;-0.90;1.00
4813;DHT22;2420;51.202;8.698;2024-01-30T04:09:14;-0.90;1.00
4813;DHT22;2420;51.202;8.698;2024-01-30T04:11:40;-0.80;1.00
4813;DHT22;2420;51.202;8.698;2024-01-30T04:14:07;-0.70;1.00
4813;DHT22;2420;51.202;8.698;2024-01-30T04:16:32;-0.80;1.00
4813;DHT22;2420;51.202;8.698;2024-01-30T04:18:58;-1.00;1.00
4813;DHT22;2420;51.202;8.698;2024-01-30T04:21:23;-1.10;1.00
4813;DHT22;2420;51.202;8.698;2024-01-30T04:23:50;-0.90;1.00
4813;DHT22;2420;51.202;8.698;2024-01-30T04:26:16;-0.80;1.00
4813;DHT22;2420;51.202;8.698;2024-01-30T04:28:43;-1.10;1.00
4813;DHT22;2420;51.202;8.698;2024-01-30T04:31:09;-1.10;1.00
4813;DHT22;2420;51.202;8.698;2024-01-30T04:33:35;-1.20;1.00
4813;DHT22;2420;51.202;8.698;2024-01-30T04:36:00;-1.00;1.00
4813;DHT22;2420;51.202;8.698;2024-01-30T04:38:26;-1.20;1.00
4813;DHT22;2420;51.202;8.698;2024-01-30T04:40:51;-0.80;1.00
4813;DHT22;2420;51.202;8.698;2024-01-30T04:43:17;-1.10;1.00
4813;DHT22;2420;51.202;8.698;2024-01-30T04:45:44;-0.90;1.00
4813;DHT22;2420;51.202;8.698;2024-01-30T04:48:09;-1.10;1.00
4813;DHT22;2420;51.202;8.698;2024-01-30T04:50:35;-1.20;1.00
4813;DHT22;2420;51.202;8.698;2024-01-30T04:53:01;-1.00;1.00
4813;DHT22;2420;51.202;8.698;2024-01-30T04:55:27;-1.10;1.00
4813;DHT22;2420;51.202;8.698;2024-01-30T04:57:52;-1.10;1.00
4813;DHT22;2420;51.202;8.698;2024-01-30T05:00:18;-1.20;1.00
4813;DHT22;2420;51.202;8.698;2024-01-30T05:02:44;-1.10;1.00
4813;DHT22;2420;51.202;8.698;2024-01-30T05:05:09;-1.10;1.00
4813;DHT22;2420;51.202;8.698;2024-01-30T05:07:35;-0.90;1.00
4813;DHT22;2420;51.202;8.698;2024-01-30T05:10:01;-1.00;1.00
4813;DHT22;2420;51.202;8.698;2024-01-30T05:12:27;-1.20;1.00
4813;DHT22;2420;51.202;8.698;2024-01-30T05:14:52;-1.10;1.00
4813;DHT22;2420;51.202;8.698;2024-01-30T05:17:18;-1.00;1.00
4813;DHT22;2420;51.202;8.698;2024-01-30T05:19:44;-1.00;1.00
4813;DHT22;2420;51.202;8.698;2024-01-30T05:22:09;-0.90;1.00
4813;DHT22;2420;51.202;8.698;2024-01-30T05:24:36;-1.00;1.00
4813;DHT22;2420;51.202;8.698;2024-01-30T05:27:02;-0.80;1.00
4813;DHT22;2420;51.202;8.698;2024-01-30T05:29:28;-1.10;1.00
4813;DHT22;2420;51.202;8.698;2024-01-30T05:31:53;-1.00;1.00
4813;DHT22;2420;51.202;8.698;2024-01-30T05:34:19;-1.20;1.00
4813;DHT22;2420;51.202;8.698;2024-01-30T05:36:44;-0.80;1.00
4813;DHT22;2420;51.202;8.698;2024-01-30T05:39:10;-1.00;1.00
4813;DHT22;2420;51.202;8.698;2024-01-30T05:41:36;-0.90;1.00
4813;DHT22;2420;51.202;8.698;2024-01-30T05:44:01;-1.00;1.00
4813;DHT22;2420;51.202;8.698;2024-01-30T05:46:27;-1.00;1.00
4813;DHT22;2420;51.202;8.698;2024-01-30T05:48:53;-0.90;1.00
4813;DHT22;2420;51.202;8.698;2024-01-30T05:51:18;-1.00;1.00
4813;DHT22;2420;51.202;8.698;2024-01-30T05:53:44;-0.90;1.00
4813;DHT22;2420;51.202;8.698;2024-01-30T05:56:09;-0.90;1.00
4813;DHT22;2420;51.202;8.698;2024-01-30T05:58:35;-0.80;1.00
4813;DHT22;2420;51.202;8.698;2024-01-30T06:01:06;-0.80;1.00
4813;DHT22;2420;51.202;8.698;2024-01-30T06:03:31;-0.90;1.00
4813;DHT22;2420;51.202;8.698;2024-01-30T06:05:57;-1.00;1.00
4813;DHT22;2420;51.202;8.698;2024-01-30T06:08:23;-0.90;1.00
4813;DHT22;2420;51.202;8.698;2024-01-30T06:10:48;-1.10;1.00
4813;DHT22;2420;51.202;8.698;2024-01-30T06:13:14;-0.90;1.00
4813;DHT22;2420;51.202;8.698;2024-01-30T06:15:40;-1.10;1.00
4813;DHT22;2420;51.202;8.698;2024-01-30T06:18:05;-1.00;1.00
4813;DHT22;2420;51.202;8.698;2024-01-30T06:20:31;-1.00;1.00
4813;DHT22;2420;51.202;8.698;2024-01-30T06:22:56;-1.00;1.00
4813;DHT22;2420;51.202;8.698;2024-01-30T06:25:22;-1.00;1.00
4813;DHT22;2420;51.202;8.698;2024-01-30T06:27:47;-0.90;1.00
4813;DHT22;2420;51.202;8.698;2024-01-30T06:30:13;-0.70;1.00
4813;DHT22;2420;51.202;8.698;2024-01-30T06:32:39;-0.90;1.00
4813;DHT22;2420;51.202;8.698;2024-01-30T06:35:05;-0.90;1.00
4813;DHT22;2420;51.202;8.698;2024-01-30T06:37:31;-1.00;1.00
4813;DHT22;2420;51.202;8.698;2024-01-30T06:39:56;-1.00;1.00
4813;DHT22;2420;51.202;8.698;2024-01-30T06:42:22;-1.20;1.00
4813;DHT22;2420;51.202;8.698;2024-01-30T06:44:48;-0.90;1.00
4813;DHT22;2420;51.202;8.698;2024-01-30T06:47:13;-1.20;1.00
4813;DHT22;2420;51.202;8.698;2024-01-30T06:49:39;-1.20;1.00
4813;DHT22;2420;51.202;8.698;2024-01-30T06:52:07;-1.10;1.00
4813;DHT22;2420;51.202;8.698;2024-01-30T06:54:33;-1.10;1.00
4813;DHT22;2420;51.202;8.698;2024-01-30T06:56:59;-0.90;1.00
4813;DHT22;2420;51.202;8.698;2024-01-30T06:59:24;-1.00;1.00
4813;DHT22;2420;51.202;8.698;2024-01-30T07:01:50;-1.10;1.00
4813;DHT22;2420;51.202;8.698;2024-01-30T07:04:15;-0.90;1.00
4813;DHT22;2420;51.202;8.698;2024-01-30T07:06:42;-1.10;1.00
4813;DHT22;2420;51.202;8.698;2024-01-30T07:09:08;-1.30;1.00
4813;DHT22;2420;51.202;8.698;2024-01-30T07:11:34;-1.10;1.00
4813;DHT22;2420;51.202;8.698;2024-01-30T07:13:59;-1.20;1.00
4813;DHT22;2420;51.202;8.698;2024-01-30T07:16:25;-1.10;1.00
4813;DHT22;2420;51.202;8.698;2024-01-30T07:18:51;-1.20;1.00
4813;DHT22;2420;51.202;8.698;2024-01-30T07:21:16;-0.90;1.00
4813;DHT22;2420;51.202;8.698;2024-01-30T07:23:42;-1.20;1.00
4813;DHT22;2420;51.202;8.698;2024-01-30T07:26:08;-1.10;1.00
4813;DHT22;2420;51.202;8.698;2024-01-30T07:28:35;-1.00;1.00
4813;DHT22;2420;51.202;8.698;2024-01-30T07:31:01;-1.20;1.00
4813;DHT22;2420;51.202;8.698;2024-01-30T07:33:27;-1.00;1.00
4813;DHT22;2420;51.202;8.698;2024-01-30T07:35:53;-1.20;1.00
4813;DHT22;2420;51.202;8.698;2024-01-30T07:38:19;-1.10;1.00
4813;DHT22;2420;51.202;8.698;2024-01-30T07:40:45;-0.90;1.00
4813;DHT22;2420;51.202;8.698;2024-01-30T07:43:11;-0.90;1.00
4813;DHT22;2420;51.202;8.698;2024-01-30T07:45:37;-1.00;1.00
4813;DHT22;2420;51.202;8.698;2024-01-30T07:48:05;-0.80;1.00
4813;DHT22;2420;51.202;8.698;2024-01-30T07:50:31;-0.70;1.00
4813;DHT22;2420;51.202;8.698;2024-01-30T07:52:58;-0.80;1.00
4813;DHT22;2420;51.202;8.698;2024-01-30T07:55:24;-0.80;1.00
4813;DHT22;2420;51.202;8.698;2024-01-30T07:57:52;-0.60;1.00
4813;DHT22;2420;51.202;8.698;2024-01-30T08:00:20;-0.70;1.00
4813;DHT22;2420;51.202;8.698;2024-01-30T08:02:45;-0.50;1.00
4813;DHT22;2420;51.202;8.698;2024-01-30T08:05:11;-0.60;1.00
4813;DHT22;2420;51.202;8.698;2024-01-30T08:07:37;-0.60;1.00
4813;DHT22;2420;51.202;8.698;2024-01-30T08:10:03;-0.30;1.00
4813;DHT22;2420;51.202;8.698;2024-01-30T08:12:30;-0.40;1.00
4813;DHT22;2420;51.202;8.698;2024-01-30T08:14:56;-0.40;1.00
4813;DHT22;2420;51.202;8.698;2024-01-30T08:17:21;-0.40;1.00
4813;DHT22;2420;51.202;8.698;2024-01-30T08:19:47;-0.20;1.00
4813;DHT22;2420;51.202;8.698;2024-01-30T08:22:12;-0.30;1.00
4813;DHT22;2420;51.202;8.698;2024-01-30T08:24:38;-0.10;1.00
4813;DHT22;2420;51.202;8.698;2024-01-30T08:27:06;-0.10;1.00
4813;DHT22;2420;51.202;8.698;2024-01-30T08:29:32;0.00;1.00
4813;DHT22;2420;51.202;8.698;2024-01-30T08:31:57;0.00;1.00
4813;DHT22;2420;51.202;8.698;2024-01-30T08:34:24;0.10;1.00
4813;DHT22;2420;51.202;8.698;2024-01-30T08:36:50;0.10;1.00
4813;DHT22;2420;51.202;8.698;2024-01-30T08:39:15;0.20;1.00
4813;DHT22;2420;51.202;8.698;2024-01-30T08:41:41;0.30;1.00
4813;DHT22;2420;51.202;8.698;2024-01-30T08:44:06;0.00;1.00
4813;DHT22;2420;51.202;8.698;2024-01-30T08:46:32;0.10;1.00
4813;DHT22;2420;51.202;8.698;2024-01-30T08:48:59;0.20;1.00
4813;DHT22;2420;51.202;8.698;2024-01-30T08:51:24;0.20;1.00
4813;DHT22;2420;51.202;8.698;2024-01-30T08:53:50;0.30;1.00
4813;DHT22;2420;51.202;8.698;2024-01-30T08:56:18;0.30;1.00
4813;DHT22;2420;51.202;8.698;2024-01-30T08:58:43;0.40;1.00
4813;DHT22;2420;51.202;8.698;2024-01-30T09:01:09;0.50;1.00
4813;DHT22;2420;51.202;8.698;2024-01-30T09:03:34;0.60;1.00
4813;DHT22;2420;51.202;8.698;2024-01-30T09:06:01;0.70;1.00
4813;DHT22;2420;51.202;8.698;2024-01-30T09:08:27;0.70;1.00
4813;DHT22;2420;51.202;8.698;2024-01-30T09:10:53;0.70;1.00
4813;DHT22;2420;51.202;8.698;2024-01-30T09:13:19;0.70;1.00
4813;DHT22;2420;51.202;8.698;2024-01-30T09:15:44;1.10;1.00
4813;DHT22;2420;51.202;8.698;2024-01-30T09:18:10;1.00;1.00
4813;DHT22;2420;51.202;8.698;2024-01-30T09:20:35;1.20;1.00
4813;DHT22;2420;51.202;8.698;2024-01-30T09:23:01;1.00;1.00
4813;DHT22;2420;51.202;8.698;2024-01-30T09:25:27;1.20;1.00
4813;DHT22;2420;51.202;8.698;2024-01-30T09:27:52;1.00;1.00
4813;DHT22;2420;51.202;8.698;2024-01-30T09:30:18;1.20;1.00
4813;DHT22;2420;51.202;8.698;2024-01-30T09:32:43;1.20;1.00
4813;DHT22;2420;51.202;8.698;2024-01-30T09:35:09;1.30;1.00
4813;DHT22;2420;51.202;8.698;2024-01-30T09:37:35;1.40;1.00
4813;DHT22;2420;51.202;8.698;2024-01-30T09:40:01;1.60;1.00
4813;DHT22;2420;51.202;8.698;2024-01-30T09:44:55;1.50;1.00
4813;DHT22;2420;51.202;8.698;2024-01-30T09:47:21;1.80;1.00
4813;DHT22;2420;51.202;8.698;2024-01-30T09:49:46;1.90;1.00
4813;DHT22;2420;51.202;8.698;2024-01-30T09:52:13;1.90;1.00
4813;DHT22;2420;51.202;8.698;2024-01-30T09:54:38;2.00;1.00
4813;DHT22;2420;51.202;8.698;2024-01-30T09:57:04;2.20;1.00
4813;DHT22;2420;51.202;8.698;2024-01-30T09:59:31;2.30;1.00
4813;DHT22;2420;51.202;8.698;2024-01-30T10:01:57;2.50;1.00
4813;DHT22;2420;51.202;8.698;2024-01-30T10:04:23;2.50;1.00
4813;DHT22;2420;51.202;8.698;2024-01-30T10:06:48;2.50;1.00
4813;DHT22;2420;51.202;8.698;2024-01-30T10:09:14;2.40;1.00
4813;DHT22;2420;51.202;8.698;2024-01-30T10:11:40;2.60;1.00
4813;DHT22;2420;51.202;8.698;2024-01-30T10:14:06;2.40;1.00
4813;DHT22;2420;51.202;8.698;2024-01-30T10:16:31;2.60;1.00
4813;DHT22;2420;51.202;8.698;2024-01-30T10:18:57;2.60;1.00
4813;DHT22;2420;51.202;8.698;2024-01-30T10:21:23;2.90;1.00
4813;DHT22;2420;51.202;8.698;2024-01-30T10:23:49;2.80;1.00
4813;DHT22;2420;51.202;8.698;2024-01-30T10:26:16;2.90;1.00
4813;DHT22;2420;51.202;8.698;2024-01-30T10:28:43;2.80;1.00
4813;DHT22;2420;51.202;8.698;2024-01-30T10:31:08;2.80;1.00
4813;DHT22;2420;51.202;8.698;2024-01-30T10:33:34;2.90;1.00
4813;DHT22;2420;51.202;8.698;2024-01-30T10:36:06;3.00;1.00
4813;DHT22;2420;51.202;8.698;2024-01-30T10:38:33;3.00;1.00
4813;DHT22;2420;51.202;8.698;2024-01-30T10:41:00;2.90;1.00
4813;DHT22;2420;51.202;8.698;2024-01-30T10:43:35;3.00;1.00
4813;DHT22;2420;51.202;8.698;2024-01-30T10:46:20;3.10;1.00
4813;DHT22;2420;51.202;8.698;2024-01-30T10:48:57;3.20;1.00
4813;DHT22;2420;51.202;8.698;2024-01-30T10:51:25;3.40;1.00
4813;DHT22;2420;51.202;8.698;2024-01-30T10:53:52;3.40;1.00
4813;DHT22;2420;51.202;8.698;2024-01-30T10:56:21;3.50;1.00
4813;DHT22;2420;51.202;8.698;2024-01-30T10:58:47;3.80;1.00
4813;DHT22;2420;51.202;8.698;2024-01-30T11:01:14;3.70;1.00
4813;DHT22;2420;51.202;8.698;2024-01-30T11:03:41;3.50;1.00
4813;DHT22;2420;51.202;8.698;2024-01-30T11:06:11;3.80;1.00
4813;DHT22;2420;51.202;8.698;2024-01-30T11:08:37;3.80;1.00
4813;DHT22;2420;51.202;8.698;2024-01-30T11:11:08;3.60;1.00
4813;DHT22;2420;51.202;8.698;2024-01-30T11:13:34;4.00;1.00
4813;DHT22;2420;51.202;8.698;2024-01-30T11:16:04;3.80;1.00
4813;DHT22;2420;51.202;8.698;2024-01-30T11:18:31;4.20;1.00
4813;DHT22;2420;51.202;8.698;2024-01-30T11:21:00;4.20;1.00
4813;DHT22;2420;51.202;8.698;2024-01-30T11:23:28;4.00;1.00
4813;DHT22;2420;51.202;8.698;2024-01-30T11:25:54;4.10;1.00
4813;DHT22;2420;51.202;8.698;2024-01-30T11:28:21;4.10;1.00
4813;DHT22;2420;51.202;8.698;2024-01-30T11:30:47;4.20;1.00
4813;DHT22;2420;51.202;8.698;2024-01-30T11:33:30;4.40;1.00
4813;DHT22;2420;51.202;8.698;2024-01-30T11:35:57;4.50;1.00
4813;DHT22;2420;51.202;8.698;2024-01-30T11:38:25;4.50;1.00
4813;DHT22;2420;51.202;8.698;2024-01-30T11:40:51;4.60;1.00
4813;DHT22;2420;51.202;8.698;2024-01-30T11:43:18;4.70;1.00
4813;DHT22;2420;51.202;8.698;2024-01-30T11:45:44;4.60;1.00
4813;DHT22;2420;51.202;8.698;2024-01-30T11:48:12;4.60;1.00
4813;DHT22;2420;51.202;8.698;2024-01-30T11:50:38;4.80;1.00
4813;DHT22;2420;51.202;8.698;2024-01-30T11:53:04;4.80;1.00
4813;DHT22;2420;51.202;8.698;2024-01-30T11:55:30;5.00;1.00
4813;DHT22;2420;51.202;8.698;2024-01-30T11:57:59;5.10;1.00
4813;DHT22;2420;51.202;8.698;2024-01-30T12:00:25;4.90;1.00
4813;DHT22;2420;51.202;8.698;2024-01-30T12:02:52;4.80;1.00
4813;DHT22;2420;51.202;8.698;2024-01-30T12:05:22;5.00;1.00
4813;DHT22;2420;51.202;8.698;2024-01-30T12:07:48;5.00;1.00
4813;DHT22;2420;51.202;8.698;2024-01-30T12:10:14;5.30;1.00
4813;DHT22;2420;51.202;8.698;2024-01-30T12:12:41;5.20;1.00
4813;DHT22;2420;51.202;8.698;2024-01-30T12:15:08;5.50;1.00
4813;DHT22;2420;51.202;8.698;2024-01-30T12:17:34;5.50;1.00
4813;DHT22;2420;51.202;8.698;2024-01-30T12:20:10;5.40;1.00
4813;DHT22;2420;51.202;8.698;2024-01-30T12:22:38;5.50;1.00
4813;DHT22;2420;51.202;8.698;2024-01-30T12:25:11;5.80;1.00
4813;DHT22;2420;51.202;8.698;2024-01-30T12:27:38;5.70;1.00
4813;DHT22;2420;51.202;8.698;2024-01-30T12:30:08;5.60;1.00
4813;DHT22;2420;51.202;8.698;2024-01-30T12:32:41;5.70;1.00
4813;DHT22;2420;51.202;8.698;2024-01-30T12:35:10;5.70;1.00
4813;DHT22;2420;51.202;8.698;2024-01-30T12:37:37;5.70;1.00
4813;DHT22;2420;51.202;8.698;2024-01-30T12:40:03;5.90;1.00
4813;DHT22;2420;51.202;8.698;2024-01-30T12:42:28;5.70;1.00
4813;DHT22;2420;51.202;8.698;2024-01-30T12:44:56;5.90;1.00
4813;DHT22;2420;51.202;8.698;2024-01-30T12:47:22;5.70;1.00
4813;DHT22;2420;51.202;8.698;2024-01-30T12:49:47;5.80;1.00
4813;DHT22;2420;51.202;8.698;2024-01-30T12:52:15;5.60;1.00
4813;DHT22;2420;51.202;8.698;2024-01-30T12:54:41;5.40;1.00
4813;DHT22;2420;51.202;8.698;2024-01-30T12:57:07;5.50;1.00
4813;DHT22;2420;51.202;8.698;2024-01-30T12:59:33;5.40;1.00
4813;DHT22;2420;51.202;8.698;2024-01-30T13:02:00;5.40;1.00
4813;DHT22;2420;51.202;8.698;2024-01-30T13:04:26;5.40;1.00
4813;DHT22;2420;51.202;8.698;2024-01-30T13:06:52;5.60;1.00
4813;DHT22;2420;51.202;8.698;2024-01-30T13:09:18;5.60;1.00
4813;DHT22;2420;51.202;8.698;2024-01-30T13:11:43;5.40;1.00
4813;DHT22;2420;51.202;8.698;2024-01-30T13:14:09;5.60;1.00
4813;DHT22;2420;51.202;8.698;2024-01-30T13:16:34;5.80;1.00
4813;DHT22;2420;51.202;8.698;2024-01-30T13:19:00;5.60;1.00
4813;DHT22;2420;51.202;8.698;2024-01-30T13:21:27;5.50;1.00
4813;DHT22;2420;51.202;8.698;2024-01-30T13:23:53;5.60;1.00
4813;DHT22;2420;51.202;8.698;2024-01-30T13:26:20;5.60;1.00
4813;DHT22;2420;51.202;8.698;2024-01-30T13:28:46;5.40;1.00
4813;DHT22;2420;51.202;8.698;2024-01-30T13:31:14;5.70;1.00
4813;DHT22;2420;51.202;8.698;2024-01-30T13:33:40;5.60;1.00
4813;DHT22;2420;51.202;8.698;2024-01-30T13:36:07;5.50;1.00
4813;DHT22;2420;51.202;8.698;2024-01-30T13:38:32;5.50;1.00
4813;DHT22;2420;51.202;8.698;2024-01-30T13:40:59;5.60;1.00
4813;DHT22;2420;51.202;8.698;2024-01-30T13:43:24;5.50;1.00
4813;DHT22;2420;51.202;8.698;2024-01-30T13:45:50;5.50;1.00
4813;DHT22;2420;51.202;8.698;2024-01-30T13:48:16;5.50;1.00
4813;DHT22;2420;51.202;8.698;2024-01-30T13:50:41;5.40;1.00
4813;DHT22;2420;51.202;8.698;2024-01-30T13:53:07;5.20;1.00
4813;DHT22;2420;51.202;8.698;2024-01-30T13:55:33;5.50;1.00
4813;DHT22;2420;51.202;8.698;2024-01-30T13:57:59;5.60;1.00
4813;DHT22;2420;51.202;8.698;2024-01-30T14:00:27;5.50;1.00
4813;DHT22;2420;51.202;8.698;2024-01-30T14:02:53;5.50;1.00
4813;DHT22;2420;51.202;8.698;2024-01-30T14:05:23;5.40;1.00
4813;DHT22;2420;51.202;8.698;2024-01-30T14:07:48;5.50;1.00
4813;DHT22;2420;51.202;8.698;2024-01-30T14:10:16;5.50;1.00
4813;DHT22;2420;51.202;8.698;2024-01-30T14:12:43;5.30;1.00
4813;DHT22;2420;51.202;8.698;2024-01-30T14:15:10;5.30;1.00
4813;DHT22;2420;51.202;8.698;2024-01-30T14:17:36;5.60;1.00
4813;DHT22;2420;51.202;8.698;2024-01-30T14:20:03;5.30;1.00
4813;DHT22;2420;51.202;8.698;2024-01-30T14:22:30;5.30;1.00
4813;DHT22;2420;51.202;8.698;2024-01-30T14:24:55;5.40;1.00
4813;DHT22;2420;51.202;8.698;2024-01-30T14:27:21;5.30;1.00
4813;DHT22;2420;51.202;8.698;2024-01-30T14:29:47;5.20;1.00
4813;DHT22;2420;51.202;8.698;2024-01-30T14:32:13;5.30;1.00
4813;DHT22;2420;51.202;8.698;2024-01-30T14:34:38;5.00;1.00
4813;DHT22;2420;51.202;8.698;2024-01-30T14:37:05;5.20;1.00
4813;DHT22;2420;51.202;8.698;2024-01-30T14:39:30;5.20;1.00
4813;DHT22;2420;51.202;8.698;2024-01-30T14:41:56;5.40;1.00
4813;DHT22;2420;51.202;8.698;2024-01-30T14:44:22;5.10;1.00
4813;DHT22;2420;51.202;8.698;2024-01-30T14:46:48;5.10;1.00
4813;DHT22;2420;51.202;8.698;2024-01-30T14:49:14;5.30;1.00
4813;DHT22;2420;51.202;8.698;2024-01-30T14:51:41;5.20;1.00
4813;DHT22;2420;51.202;8.698;2024-01-30T14:54:06;5.20;1.00
4813;DHT22;2420;51.202;8.698;2024-01-30T14:56:32;5.10;1.00
4813;DHT22;2420;51.202;8.698;2024-01-30T14:58:58;5.30;1.00
4813;DHT22;2420;51.202;8.698;2024-01-30T15:01:24;5.20;1.00
4813;DHT22;2420;51.202;8.698;2024-01-30T15:03:49;5.10;1.00
4813;DHT22;2420;51.202;8.698;2024-01-30T15:06:17;5.00;1.00
4813;DHT22;2420;51.202;8.698;2024-01-30T15:08:42;4.90;1.00
4813;DHT22;2420;51.202;8.698;2024-01-30T15:11:08;4.90;1.00
4813;DHT22;2420;51.202;8.698;2024-01-30T15:13:33;5.00;1.00
4813;DHT22;2420;51.202;8.698;2024-01-30T15:15:59;5.10;1.00
4813;DHT22;2420;51.202;8.698;2024-01-30T15:18:25;5.00;1.00
4813;DHT22;2420;51.202;8.698;2024-01-30T15:20:50;5.00;1.00
4813;DHT22;2420;51.202;8.698;2024-01-30T15:23:16;4.90;1.00
4813;DHT22;2420;51.202;8.698;2024-01-30T15:25:42;5.00;1.00
4813;DHT22;2420;51.202;8.698;2024-01-30T15:28:07;4.80;1.00
4813;DHT22;2420;51.202;8.698;2024-01-30T15:30:35;4.90;1.00
4813;DHT22;2420;51.202;8.698;2024-01-30T15:33:00;5.00;1.00
4813;DHT22;2420;51.202;8.698;2024-01-30T15:35:26;4.70;1.00
4813;DHT22;2420;51.202;8.698;2024-01-30T15:37:51;4.70;1.00
4813;DHT22;2420;51.202;8.698;2024-01-30T15:40:17;4.60;1.00
4813;DHT22;2420;51.202;8.698;2024-01-30T15:42:44;4.60;1.00
4813;DHT22;2420;51.202;8.698;2024-01-30T15:45:09;4.90;1.00
4813;DHT22;2420;51.202;8.698;2024-01-30T15:47:35;4.70;1.00
4813;DHT22;2420;51.202;8.698;2024-01-30T15:50:02;4.80;1.00
4813;DHT22;2420;51.202;8.698;2024-01-30T15:52:28;4.60;1.00
4813;DHT22;2420;51.202;8.698;2024-01-30T15:54:53;4.80;1.00
4813;DHT22;2420;51.202;8.698;2024-01-30T15:57:19;4.80;1.00
4813;DHT22;2420;51.202;8.698;2024-01-30T15:59:44;4.70;1.00
4813;DHT22;2420;51.202;8.698;2024-01-30T16:02:10;4.50;1.00
4813;DHT22;2420;51.202;8.698;2024-01-30T16:04:35;4.60;1.00
4813;DHT22;2420;51.202;8.698;2024-01-30T16:07:01;4.50;1.00
4813;DHT22;2420;51.202;8.698;2024-01-30T16:09:27;4.60;1.00
4813;DHT22;2420;51.202;8.698;2024-01-30T16:11:52;4.30;1.00
4813;DHT22;2420;51.202;8.698;2024-01-30T16:14:18;4.30;1.00
4813;DHT22;2420;51.202;8.698;2024-01-30T16:16:43;4.30;1.00
4813;DHT22;2420;51.202;8.698;2024-01-30T16:19:09;4.50;1.00
4813;DHT22;2420;51.202;8.698;2024-01-30T16:21:34;4.20;1.00